createdAt,value
2024-04-19T00:01:55.378Z,1.10
2024-04-19T00:04:22.389Z,1.30
2024-04-19T00:06:51.287Z,1.30
2024-04-19T00:09:18.085Z,1.50
2024-04-19T00:11:44.861Z,1.63
2024-04-19T00:14:11.822Z,1.20
2024-04-19T00:16:38.727Z,1.50
2024-04-19T00:19:06.329Z,1.58
2024-04-19T00:21:33.312Z,1.40
2024-04-19T00:24:00.182Z,1.42
2024-04-19T00:26:26.988Z,1.35
2024-04-19T00:28:53.947Z,1.20
2024-04-19T00:31:20.749Z,1.40
2024-04-19T00:33:47.671Z,1.17
2024-04-19T00:36:14.641Z,1.15
2024-04-19T00:38:41.619Z,0.90
2024-04-19T00:41:08.446Z,1.20
2024-04-19T00:43:35.330Z,1.35
2024-04-19T00:46:02.456Z,1.20
2024-04-19T00:48:29.426Z,1.10
2024-04-19T00:51:00.973Z,0.82
2024-04-19T00:53:33.156Z,1.00
2024-04-19T00:56:04.501Z,0.75
2024-04-19T00:58:32.475Z,1.35
2024-04-19T01:01:04.874Z,1.33
2024-04-19T01:03:32.125Z,0.98
2024-04-19T01:05:59.195Z,1.77
2024-04-19T01:08:26.660Z,1.10
2024-04-19T01:10:53.833Z,1.33
2024-04-19T01:13:20.922Z,1.60
2024-04-19T01:15:49.245Z,1.13
2024-04-19T01:18:16.241Z,2.05
2024-04-19T01:20:44.580Z,1.10
2024-04-19T01:23:12.713Z,1.45
2024-04-19T01:25:40.658Z,1.35
2024-04-19T01:28:11.518Z,1.80
2024-04-19T01:30:41.901Z,1.17
2024-04-19T01:33:09.108Z,1.50
2024-04-19T01:35:36.055Z,1.00
2024-04-19T01:38:03.277Z,1.38
2024-04-19T01:40:30.162Z,1.58
2024-04-19T01:42:56.928Z,1.63
2024-04-19T01:45:23.808Z,1.17
2024-04-19T01:47:50.718Z,1.17
2024-04-19T01:50:17.567Z,1.45
2024-04-19T01:52:44.342Z,1.08
2024-04-19T01:55:11.099Z,1.13
2024-04-19T01:57:37.990Z,1.48
2024-04-19T02:00:06.104Z,1.63
2024-04-19T02:02:32.902Z,1.30
2024-04-19T02:04:59.709Z,1.40
2024-04-19T02:07:26.514Z,1.42
2024-04-19T02:09:54.252Z,1.83
2024-04-19T02:12:21.429Z,1.23
2024-04-19T02:14:48.379Z,1.65
2024-04-19T02:17:15.267Z,1.38
2024-04-19T02:19:43.405Z,1.40
2024-04-19T02:22:10.287Z,1.77
2024-04-19T02:24:37.869Z,1.65
2024-04-19T02:27:07.623Z,1.75
2024-04-19T02:29:53.116Z,2.10
2024-04-19T02:32:19.903Z,1.55
2024-04-19T02:34:48.133Z,1.90
2024-04-19T02:37:15.342Z,1.85
2024-04-19T02:39:42.191Z,2.03
2024-04-19T02:42:09.043Z,2.35
2024-04-19T02:44:35.894Z,2.40
2024-04-19T02:47:02.818Z,2.38
2024-04-19T02:49:29.674Z,2.17
2024-04-19T02:51:56.507Z,2.10
2024-04-19T02:54:23.995Z,2.55
2024-04-19T02:56:50.846Z,3.08
2024-04-19T02:59:17.613Z,3.03
2024-04-19T03:01:44.463Z,2.22
2024-04-19T03:04:11.447Z,2.88
2024-04-19T03:06:38.382Z,3.22
2024-04-19T03:09:05.204Z,2.63
2024-04-19T03:11:32.053Z,2.35
2024-04-19T03:13:58.850Z,2.20
2024-04-19T03:16:25.654Z,3.28
2024-04-19T03:18:52.579Z,3.13
2024-04-19T03:21:19.592Z,2.47
2024-04-19T03:23:46.341Z,2.90
2024-04-19T03:26:13.327Z,3.10
2024-04-19T03:28:40.152Z,2.72
2024-04-19T03:31:09.543Z,2.75
2024-04-19T03:33:36.602Z,2.63
2024-04-19T03:36:07.950Z,2.45
2024-04-19T03:38:35.099Z,2.65
2024-04-19T03:41:01.931Z,2.67
2024-04-19T03:43:34.627Z,3.03
2024-04-19T03:48:28.515Z,2.53
2024-04-19T03:50:55.333Z,2.25
2024-04-19T03:53:22.122Z,2.72
2024-04-19T03:55:49.237Z,2.45
2024-04-19T03:58:16.123Z,3.15
2024-04-19T04:00:43.384Z,2.72
2024-04-19T04:03:10.612Z,2.95
2024-04-19T04:05:37.878Z,2.90
2024-04-19T04:08:05.081Z,2.85
2024-04-19T04:10:31.880Z,2.45
2024-04-19T04:12:58.714Z,3.20
2024-04-19T04:15:25.698Z,2.80
2024-04-19T04:17:52.783Z,2.55
2024-04-19T04:20:19.624Z,2.22
2024-04-19T04:22:46.439Z,3.00
2024-04-19T04:25:13.215Z,2.25
2024-04-19T04:27:40.073Z,2.13
2024-04-19T04:30:07.696Z,2.17
2024-04-19T04:32:34.793Z,2.40
2024-04-19T04:35:01.690Z,2.03
2024-04-19T04:37:30.261Z,2.72
2024-04-19T04:39:57.273Z,2.65
2024-04-19T04:42:24.152Z,2.78
2024-04-19T04:44:50.963Z,2.33
2024-04-19T04:47:17.935Z,2.40
2024-04-19T04:49:44.875Z,2.47
2024-04-19T04:52:11.681Z,1.73
2024-04-19T04:54:38.474Z,1.77
2024-04-19T04:57:09.049Z,2.65
2024-04-19T04:59:36.334Z,2.67
2024-04-19T05:02:04.761Z,2.00
2024-04-19T05:04:32.014Z,2.58
2024-04-19T05:06:58.955Z,2.83
2024-04-19T05:09:25.891Z,2.78
2024-04-19T05:11:53.451Z,2.75
2024-04-19T05:14:20.224Z,2.90
2024-04-19T05:16:46.976Z,2.10
2024-04-19T05:19:13.782Z,2.08
2024-04-19T05:21:40.844Z,2.40
2024-04-19T05:24:07.742Z,2.10
2024-04-19T05:26:34.530Z,2.30
2024-04-19T05:29:01.361Z,1.92
2024-04-19T05:31:28.123Z,1.63
2024-04-19T05:33:55.426Z,2.05
2024-04-19T05:36:22.434Z,2.33
2024-04-19T05:38:49.372Z,2.00
2024-04-19T05:41:16.156Z,1.80
2024-04-19T05:43:46.311Z,2.10
2024-04-19T05:46:13.146Z,1.30
2024-04-19T05:48:39.971Z,1.50
2024-04-19T05:51:06.937Z,1.40
2024-04-19T05:53:33.705Z,1.35
2024-04-19T05:56:00.496Z,0.90
2024-04-19T05:58:27.391Z,1.17
2024-04-19T06:00:54.324Z,0.90
2024-04-19T06:03:21.243Z,1.10
2024-04-19T06:05:48.101Z,1.00
2024-04-19T06:08:15.379Z,1.00
2024-04-19T06:10:42.276Z,0.70
2024-04-19T06:13:09.120Z,0.77
2024-04-19T06:15:39.250Z,0.90
2024-04-19T06:18:06.405Z,1.02
2024-04-19T06:20:33.459Z,0.90
2024-04-19T06:23:00.306Z,0.75
2024-04-19T06:25:27.079Z,0.80
2024-04-19T06:27:54.004Z,1.10
2024-04-19T06:30:20.892Z,0.75
2024-04-19T06:32:47.767Z,0.95
2024-04-19T06:35:17.370Z,0.80
2024-04-19T06:37:44.160Z,0.80
2024-04-19T06:40:11.227Z,0.75
2024-04-19T06:42:38.362Z,0.95
2024-04-19T06:45:05.695Z,0.60
2024-04-19T06:47:35.853Z,0.55
2024-04-19T06:50:02.760Z,0.55
2024-04-19T06:52:31.233Z,0.65
2024-04-19T06:54:58.799Z,0.50
2024-04-19T06:57:25.799Z,0.65
2024-04-19T07:00:02.012Z,0.30
2024-04-19T07:02:38.177Z,0.50
2024-04-19T07:05:05.427Z,0.63
2024-04-19T07:07:32.367Z,0.40
2024-04-19T07:10:01.056Z,1.02
2024-04-19T07:12:29.366Z,0.70
2024-04-19T07:14:56.326Z,0.50
2024-04-19T07:17:23.314Z,0.65
2024-04-19T07:19:50.227Z,0.73
2024-04-19T07:22:17.047Z,0.50
2024-04-19T07:24:43.906Z,0.57
2024-04-19T07:27:10.739Z,0.40
2024-04-19T07:29:37.554Z,0.50
2024-04-19T07:32:04.630Z,0.75
2024-04-19T07:34:31.405Z,0.57
2024-04-19T07:36:58.224Z,0.57
2024-04-19T07:39:25.112Z,0.47
2024-04-19T07:41:51.954Z,0.60
2024-04-19T07:44:18.951Z,0.60
2024-04-19T07:46:45.794Z,0.47
2024-04-19T07:49:12.678Z,0.50
2024-04-19T07:51:39.682Z,0.55
2024-04-19T07:54:06.672Z,0.28
2024-04-19T07:56:35.116Z,0.55
2024-04-19T07:59:01.864Z,0.13
2024-04-19T08:01:28.994Z,0.30
2024-04-19T08:03:56.279Z,0.32
2024-04-19T08:06:23.083Z,0.20
2024-04-19T08:09:01.930Z,0.40
2024-04-19T08:14:09.609Z,0.40
2024-04-19T08:16:38.414Z,0.20
2024-04-19T08:19:08.458Z,0.30
2024-04-19T08:21:35.873Z,0.35
2024-04-19T08:24:04.852Z,0.32
2024-04-19T08:26:31.967Z,0.40
2024-04-19T08:28:59.982Z,0.52
2024-04-19T08:31:28.383Z,0.28
2024-04-19T08:33:55.402Z,0.20
2024-04-19T08:36:24.846Z,0.45
2024-04-19T08:38:51.782Z,0.28
2024-04-19T08:41:21.339Z,0.30
2024-04-19T08:43:48.936Z,0.47
2024-04-19T08:46:17.104Z,0.52
2024-04-19T08:48:46.795Z,0.20
2024-04-19T08:51:23.026Z,0.22
2024-04-19T08:53:56.231Z,0.20
2024-04-19T08:56:27.013Z,0.35
2024-04-19T08:58:56.494Z,0.30
2024-04-19T09:01:32.981Z,0.40
2024-04-19T09:04:03.474Z,0.30
2024-04-19T09:06:30.565Z,0.20
2024-04-19T09:08:57.762Z,0.40
2024-04-19T09:11:25.023Z,0.30
2024-04-19T09:13:51.979Z,0.28
2024-04-19T09:16:18.965Z,0.20
2024-04-19T09:18:51.545Z,0.30
2024-04-19T09:23:57.048Z,0.17
2024-04-19T09:26:32.176Z,0.20
2024-04-19T09:28:59.215Z,0.10
2024-04-19T09:31:31.770Z,0.30
2024-04-19T09:33:59.069Z,0.10
2024-04-19T09:36:28.948Z,0.00
2024-04-19T09:40:18.046Z,0.00
2024-04-19T09:42:48.676Z,0.20
2024-04-19T09:45:17.464Z,0.20
2024-04-19T09:47:47.835Z,0.10
2024-04-19T09:50:15.535Z,0.10
2024-04-19T09:52:46.653Z,0.10
2024-04-19T09:55:30.081Z,0.00
2024-04-19T09:57:59.368Z,0.20
2024-04-19T10:00:31.375Z,0.00
2024-04-19T10:03:00.618Z,0.10
2024-04-19T10:05:30.342Z,0.10
2024-04-19T10:07:57.900Z,0.20
2024-04-19T10:10:25.279Z,0.20
2024-04-19T10:12:53.129Z,0.10
2024-04-19T10:15:24.170Z,0.20
2024-04-19T10:17:51.215Z,0.05
2024-04-19T10:20:18.309Z,0.10
2024-04-19T10:22:49.818Z,0.13
2024-04-19T10:25:23.479Z,0.20
2024-04-19T10:27:51.859Z,0.08
2024-04-19T10:30:27.714Z,0.13
2024-04-19T10:35:26.463Z,0.20
2024-04-19T10:37:54.587Z,0.15
2024-04-19T10:40:22.396Z,0.20
2024-04-19T10:42:49.224Z,0.20
2024-04-19T10:45:16.405Z,0.13
2024-04-19T10:47:44.040Z,0.13
2024-04-19T10:50:11.170Z,0.00
2024-04-19T10:52:38.358Z,0.08
2024-04-19T10:55:05.478Z,0.10
2024-04-19T10:57:32.267Z,0.17
2024-04-19T10:59:59.276Z,0.20
2024-04-19T11:02:30.994Z,0.10
2024-04-19T11:04:58.032Z,0.52
2024-04-19T11:07:25.471Z,0.30
2024-04-19T11:09:52.789Z,0.17
2024-04-19T11:12:19.990Z,0.30
2024-04-19T11:14:46.828Z,0.90
2024-04-19T11:17:13.606Z,0.60
2024-04-19T11:19:40.731Z,0.57
2024-04-19T11:22:07.754Z,0.20
2024-04-19T11:24:35.627Z,0.70
2024-04-19T11:27:02.999Z,0.55
2024-04-19T11:29:30.313Z,0.20
2024-04-19T11:31:57.150Z,0.10
2024-04-19T11:34:31.969Z,0.10
2024-04-19T11:37:06.175Z,0.10
2024-04-19T11:39:33.426Z,0.10
2024-04-19T11:42:00.950Z,0.10
2024-04-19T11:44:27.988Z,0.10
2024-04-19T11:47:02.794Z,0.40
2024-04-19T11:49:29.627Z,0.00
2024-04-19T11:51:56.826Z,0.10
2024-04-19T11:54:27.173Z,0.10
2024-04-19T11:56:54.489Z,0.10
2024-04-19T11:59:21.828Z,0.20
2024-04-19T12:01:49.390Z,0.10
2024-04-19T12:04:16.387Z,0.20
2024-04-19T12:06:43.389Z,0.10
2024-04-19T12:09:10.683Z,0.22
2024-04-19T12:11:37.523Z,0.30
2024-04-19T12:14:57.135Z,0.30
2024-04-19T12:17:00.429Z,0.20
2024-04-19T12:19:34.473Z,0.10
2024-04-19T12:22:03.023Z,0.10
2024-04-19T12:24:30.412Z,0.10
2024-04-19T12:26:57.689Z,0.00
2024-04-19T12:29:25.562Z,0.00
2024-04-19T12:31:52.496Z,0.30
2024-04-19T12:34:19.278Z,0.30
2024-04-19T12:36:48.117Z,0.20
2024-04-19T12:39:15.489Z,0.00
2024-04-19T12:41:43.045Z,0.00
2024-04-19T12:44:10.201Z,0.00
2024-04-19T12:46:39.044Z,0.10
2024-04-19T12:49:08.199Z,0.50
2024-04-19T12:51:35.857Z,0.30
2024-04-19T12:54:03.388Z,0.20
2024-04-19T12:56:30.466Z,0.10
2024-04-19T12:58:57.878Z,0.00
2024-04-19T13:01:24.911Z,0.10
2024-04-19T13:03:52.381Z,0.10
2024-04-19T13:06:19.554Z,0.10
2024-04-19T13:08:46.722Z,0.00
2024-04-19T13:11:13.729Z,0.25
2024-04-19T13:13:55.745Z,0.10
2024-04-19T13:16:22.748Z,0.20
2024-04-19T13:18:49.899Z,0.10
2024-04-19T13:21:17.036Z,0.10
2024-04-19T13:23:43.958Z,0.05
2024-04-19T13:26:11.301Z,0.00
2024-04-19T13:28:40.444Z,0.10
2024-04-19T13:31:07.523Z,0.15
2024-04-19T13:33:35.545Z,0.00
2024-04-19T13:36:02.400Z,0.25
2024-04-19T13:38:29.474Z,0.03
2024-04-19T13:40:56.267Z,0.10
2024-04-19T13:43:23.078Z,0.13
2024-04-19T13:45:50.774Z,0.20
2024-04-19T13:48:18.558Z,0.40
2024-04-19T13:50:45.470Z,0.10
2024-04-19T13:53:12.944Z,0.10
2024-04-19T13:55:40.068Z,0.08
2024-04-19T13:58:07.579Z,0.00
2024-04-19T14:00:34.454Z,0.10
2024-04-19T14:03:01.438Z,0.10
2024-04-19T14:05:28.743Z,0.00
2024-04-19T14:07:55.789Z,0.00
2024-04-19T14:10:22.642Z,0.10
2024-04-19T14:12:53.268Z,0.20
2024-04-19T14:15:20.152Z,0.00
2024-04-19T14:17:47.041Z,0.15
2024-04-19T14:20:13.900Z,0.10
2024-04-19T14:22:40.718Z,0.10
2024-04-19T14:25:09.743Z,0.10
2024-04-19T14:27:36.789Z,0.10
2024-04-19T14:30:03.788Z,0.03
2024-04-19T14:32:30.649Z,0.10
2024-04-19T14:34:57.501Z,0.10
2024-04-19T14:37:24.714Z,0.13
2024-04-19T14:39:51.484Z,0.00
2024-04-19T14:42:18.330Z,0.10
2024-04-19T14:44:45.136Z,0.22
2024-04-19T14:47:12.027Z,0.00
2024-04-19T14:49:39.033Z,0.40
2024-04-19T14:52:12.531Z,0.20
2024-04-19T14:54:40.386Z,0.00
2024-04-19T14:57:07.467Z,0.10
2024-04-19T14:59:34.281Z,0.10
2024-04-19T15:02:03.055Z,0.10
2024-04-19T15:04:30.060Z,0.30
2024-04-19T15:06:56.923Z,0.20
2024-04-19T15:09:24.124Z,0.10
2024-04-19T15:11:50.982Z,0.10
2024-04-19T15:14:17.764Z,0.17
2024-04-19T15:16:44.737Z,0.20
2024-04-19T15:19:11.639Z,0.10
2024-04-19T15:21:38.787Z,0.17
2024-04-19T15:24:05.923Z,0.10
2024-04-19T15:26:32.754Z,0.25
2024-04-19T15:28:59.611Z,0.20
2024-04-19T15:31:28.769Z,0.20
2024-04-19T15:33:58.921Z,0.30
2024-04-19T15:36:27.604Z,0.10
2024-04-19T15:38:56.006Z,0.00
2024-04-19T15:41:38.611Z,0.10
2024-04-19T15:44:11.711Z,0.30
2024-04-19T15:46:40.795Z,0.13
2024-04-19T15:49:07.760Z,0.20
2024-04-19T15:51:34.585Z,0.10
2024-04-19T15:54:01.412Z,0.32
2024-04-19T15:56:28.210Z,0.25
2024-04-19T15:58:54.993Z,0.10
2024-04-19T16:01:21.999Z,0.20
2024-04-19T16:03:50.263Z,0.30
2024-04-19T16:06:17.119Z,0.10
2024-04-19T16:08:43.957Z,0.00
2024-04-19T16:11:10.749Z,0.25
2024-04-19T16:13:37.549Z,0.45
2024-04-19T16:16:06.064Z,0.50
2024-04-19T16:18:34.012Z,0.40
2024-04-19T16:21:00.832Z,0.20
2024-04-19T16:23:30.086Z,0.30
2024-04-19T16:25:56.944Z,0.30
2024-04-19T16:28:24.151Z,0.30
2024-04-19T16:30:51.099Z,0.35
2024-04-19T16:33:18.035Z,0.38
2024-04-19T16:35:56.042Z,0.50
2024-04-19T16:38:30.315Z,0.30
2024-04-19T16:40:57.242Z,0.47
2024-04-19T16:43:24.340Z,0.45
2024-04-19T16:45:51.207Z,0.40
2024-04-19T16:48:18.005Z,0.50
2024-04-19T16:50:44.837Z,0.70
2024-04-19T16:53:11.600Z,0.30
2024-04-19T16:55:38.367Z,0.50
2024-04-19T16:58:07.798Z,0.35
2024-04-19T17:00:34.669Z,0.43
2024-04-19T17:03:01.583Z,0.50
2024-04-19T17:05:28.709Z,0.50
2024-04-19T17:07:55.527Z,0.40
2024-04-19T17:10:22.482Z,0.30
2024-04-19T17:12:49.314Z,0.55
2024-04-19T17:15:16.949Z,0.77
2024-04-19T17:17:51.587Z,0.52
2024-04-19T17:20:18.807Z,0.77
2024-04-19T17:22:46.111Z,0.55
2024-04-19T17:25:13.812Z,0.85
2024-04-19T17:27:40.662Z,0.60
2024-04-19T17:30:11.807Z,0.80
2024-04-19T17:32:40.416Z,0.60
2024-04-19T17:35:12.129Z,0.65
2024-04-19T17:37:39.732Z,1.17
2024-04-19T17:40:07.072Z,0.93
2024-04-19T17:42:34.027Z,0.73
2024-04-19T17:45:00.860Z,0.77
2024-04-19T17:47:29.083Z,0.77
2024-04-19T17:49:57.421Z,0.88
2024-04-19T17:52:24.405Z,0.70
2024-04-19T17:54:51.315Z,0.65
2024-04-19T17:57:18.152Z,1.00
2024-04-19T17:59:44.928Z,0.77
2024-04-19T18:02:12.584Z,0.95
2024-04-19T18:04:40.870Z,0.93
2024-04-19T18:07:07.882Z,0.73
2024-04-19T18:09:34.783Z,0.55
2024-04-19T18:12:01.622Z,0.95
2024-04-19T18:14:28.451Z,0.77
2024-04-19T18:16:57.089Z,0.70
2024-04-19T18:19:26.920Z,0.70
2024-04-19T18:21:54.307Z,1.17
2024-04-19T18:24:24.685Z,1.40
2024-04-19T18:26:52.405Z,0.70
2024-04-19T18:29:19.568Z,0.77
2024-04-19T18:31:46.448Z,1.13
2024-04-19T18:34:17.086Z,0.90
2024-04-19T18:36:48.170Z,1.05
2024-04-19T18:39:15.814Z,0.90
2024-04-19T18:41:43.892Z,0.57
2024-04-19T18:44:11.844Z,0.60
2024-04-19T18:46:38.724Z,0.63
2024-04-19T18:49:09.671Z,0.77
2024-04-19T18:51:36.905Z,0.70
2024-04-19T18:54:04.226Z,0.60
2024-04-19T18:56:31.420Z,1.20
2024-04-19T18:58:58.366Z,0.75
2024-04-19T19:01:25.724Z,0.95
2024-04-19T19:03:53.046Z,0.90
2024-04-19T19:06:21.383Z,0.40
2024-04-19T19:08:48.292Z,0.80
2024-04-19T19:11:15.882Z,0.45
2024-04-19T19:13:43.253Z,0.43
2024-04-19T19:16:10.499Z,0.38
2024-04-19T19:18:37.624Z,0.60
2024-04-19T19:21:05.053Z,0.60
2024-04-19T19:23:32.170Z,0.40
2024-04-19T19:26:06.985Z,0.30
2024-04-19T19:28:34.044Z,0.52
2024-04-19T19:31:01.059Z,0.80
2024-04-19T19:33:28.265Z,0.88
2024-04-19T19:36:04.792Z,0.57
2024-04-19T19:38:34.577Z,0.52
2024-04-19T19:41:01.592Z,0.43
2024-04-19T19:43:33.219Z,0.90
2024-04-19T19:46:03.439Z,0.57
2024-04-19T19:48:34.055Z,0.32
2024-04-19T19:51:04.282Z,0.45
2024-04-19T19:53:31.661Z,0.30
2024-04-19T19:55:58.523Z,0.50
2024-04-19T19:58:26.378Z,0.50
2024-04-19T20:01:12.119Z,0.60
2024-04-19T20:03:57.868Z,0.40
2024-04-19T20:06:24.912Z,0.43
2024-04-19T20:08:53.130Z,0.40
2024-04-19T20:11:20.154Z,0.32
2024-04-19T20:13:47.061Z,0.57
2024-04-19T20:16:16.914Z,0.60
2024-04-19T20:18:44.161Z,0.60
2024-04-19T20:21:11.383Z,0.52
2024-04-19T20:23:38.232Z,0.40
2024-04-19T20:26:06.022Z,0.57
2024-04-19T20:28:32.952Z,0.47
2024-04-19T20:31:00.063Z,0.50
2024-04-19T20:33:27.068Z,0.68
2024-04-19T20:35:54.026Z,1.20
2024-04-19T20:38:26.018Z,0.52
2024-04-19T20:40:54.133Z,0.38
2024-04-19T20:43:21.492Z,0.65
2024-04-19T20:45:48.683Z,0.70
2024-04-19T20:48:18.746Z,0.85
2024-04-19T20:50:49.690Z,0.40
2024-04-19T20:53:16.498Z,0.43
2024-04-19T20:55:43.352Z,0.63
2024-04-19T20:58:10.271Z,0.43
2024-04-19T21:00:40.818Z,0.75
2024-04-19T21:03:07.951Z,0.73
2024-04-19T21:05:34.961Z,0.55
2024-04-19T21:08:02.039Z,0.50
2024-04-19T21:10:28.829Z,0.80
2024-04-19T21:12:55.871Z,0.43
2024-04-19T21:15:23.304Z,0.60
2024-04-19T21:17:50.108Z,0.77
2024-04-19T21:20:17.074Z,0.50
2024-04-19T21:22:43.935Z,0.65
2024-04-19T21:25:10.898Z,0.68
2024-04-19T21:27:37.765Z,0.65
2024-04-19T21:30:05.067Z,0.45
2024-04-19T21:32:31.956Z,0.40
2024-04-19T21:34:58.787Z,0.47
2024-04-19T21:37:25.605Z,0.70
2024-04-19T21:39:55.146Z,0.85
2024-04-19T21:42:22.836Z,0.77
2024-04-19T21:44:53.187Z,0.73
2024-04-19T21:47:20.706Z,0.75
2024-04-19T21:49:47.622Z,1.00
2024-04-19T21:52:14.410Z,0.60
2024-04-19T21:54:41.276Z,0.90
2024-04-19T21:57:08.188Z,0.80
2024-04-19T21:59:34.970Z,0.50
2024-04-19T22:02:01.990Z,0.50
2024-04-19T22:04:29.148Z,0.68
2024-04-19T22:06:56.475Z,0.60
2024-04-19T22:09:23.279Z,0.68
2024-04-19T22:11:50.206Z,0.75
2024-04-19T22:14:18.743Z,0.40
2024-04-19T22:16:46.167Z,0.40
2024-04-19T22:19:13.334Z,0.60
2024-04-19T22:21:40.778Z,0.95
2024-04-19T22:24:07.904Z,0.90
2024-04-19T22:26:35.274Z,1.00
2024-04-19T22:29:02.414Z,0.90
2024-04-19T22:31:29.547Z,0.93
2024-04-19T22:33:56.692Z,1.30
2024-04-19T22:36:24.411Z,0.80
2024-04-19T22:38:51.423Z,0.85
2024-04-19T22:41:18.177Z,1.08
2024-04-19T22:43:45.355Z,1.08
2024-04-19T22:46:12.258Z,1.05
2024-04-19T22:48:40.992Z,0.95
2024-04-19T22:51:08.174Z,1.08
2024-04-19T22:53:35.148Z,1.00
2024-04-19T22:56:02.243Z,0.90
2024-04-19T22:58:29.214Z,0.82
2024-04-19T23:01:03.423Z,0.75
2024-04-19T23:03:30.546Z,1.17
2024-04-19T23:06:10.339Z,0.85
2024-04-19T23:08:37.235Z,0.80
2024-04-19T23:11:07.100Z,0.93
2024-04-19T23:13:34.384Z,0.88
2024-04-19T23:16:02.784Z,0.77
2024-04-19T23:18:30.194Z,0.90
2024-04-19T23:21:04.944Z,1.05
2024-04-19T23:23:32.752Z,0.85
2024-04-19T23:26:19.975Z,0.98
2024-04-19T23:28:46.757Z,0.90
2024-04-19T23:31:14.155Z,1.00
2024-04-19T23:33:41.002Z,0.68
2024-04-19T23:36:08.064Z,0.77
2024-04-19T23:38:35.041Z,0.85
2024-04-19T23:41:01.829Z,1.08
2024-04-19T23:43:29.221Z,1.30
2024-04-19T23:45:56.033Z,1.00
2024-04-19T23:48:23.235Z,1.30
2024-04-19T23:50:50.157Z,1.30
2024-04-19T23:53:19.462Z,0.80
2024-04-19T23:55:46.741Z,1.00
2024-04-19T23:58:14.042Z,1.05
